createdAt,value
2022-10-31T00:02:13.372Z,45.97
2022-10-31T00:04:39.744Z,51.80
2022-10-31T00:07:06.075Z,45.40
2022-10-31T00:09:32.410Z,43.50
2022-10-31T00:11:58.759Z,46.77
2022-10-31T00:14:25.094Z,43.43
2022-10-31T00:16:51.446Z,48.33
2022-10-31T00:19:17.868Z,47.50
2022-10-31T00:21:44.193Z,45.50
2022-10-31T00:24:11.461Z,45.23
2022-10-31T00:26:37.824Z,42.97
2022-10-31T00:29:04.316Z,48.87
2022-10-31T00:31:30.901Z,41.80
2022-10-31T00:33:58.248Z,42.83
2022-10-31T00:36:24.577Z,47.77
2022-10-31T00:38:50.900Z,47.00
2022-10-31T00:41:18.207Z,38.80
2022-10-31T00:43:45.075Z,44.40
2022-10-31T00:46:12.197Z,45.20
2022-10-31T00:48:38.632Z,42.17
2022-10-31T00:51:05.100Z,41.67
2022-10-31T00:53:31.433Z,39.53
2022-10-31T00:55:57.746Z,49.63
2022-10-31T00:58:24.114Z,41.73
2022-10-31T01:00:56.379Z,45.43
2022-10-31T01:03:33.044Z,40.93
2022-10-31T01:06:06.724Z,44.90
2022-10-31T01:08:33.717Z,42.43
2022-10-31T01:11:05.186Z,42.37
2022-10-31T01:13:31.643Z,38.80
2022-10-31T01:15:58.925Z,42.27
2022-10-31T01:18:25.400Z,43.93
2022-10-31T01:21:02.473Z,45.33
2022-10-31T01:23:28.865Z,51.33
2022-10-31T01:26:06.396Z,45.07
2022-10-31T01:28:32.840Z,49.50
2022-10-31T01:31:03.005Z,44.63
2022-10-31T01:33:29.382Z,43.47
2022-10-31T01:35:55.737Z,61.83
2022-10-31T01:38:22.169Z,52.57
2022-10-31T01:40:48.529Z,50.33
2022-10-31T01:43:14.973Z,64.60
2022-10-31T01:45:42.737Z,62.70
2022-10-31T01:48:13.080Z,61.53
2022-10-31T01:50:39.698Z,63.67
2022-10-31T01:53:07.879Z,61.63
2022-10-31T01:55:35.981Z,63.23
2022-10-31T01:58:08.017Z,54.63
2022-10-31T02:00:34.465Z,68.77
2022-10-31T02:03:01.454Z,61.57
2022-10-31T02:05:30.510Z,68.57
2022-10-31T02:08:15.059Z,62.93
2022-10-31T02:10:43.081Z,63.80
2022-10-31T02:13:09.548Z,57.60
2022-10-31T02:15:36.480Z,66.97
2022-10-31T02:18:04.434Z,69.57
2022-10-31T02:20:33.848Z,57.60
2022-10-31T02:23:03.200Z,58.10
2022-10-31T02:25:35.776Z,55.77
2022-10-31T02:28:10.122Z,62.67
2022-10-31T02:31:09.120Z,59.37
2022-10-31T02:33:44.776Z,54.70
2022-10-31T02:36:11.104Z,49.83
2022-10-31T02:38:40.428Z,54.07
2022-10-31T02:41:31.394Z,58.77
2022-10-31T02:44:07.033Z,61.00
2022-10-31T02:46:39.768Z,50.13
2022-10-31T02:49:12.458Z,63.67
2022-10-31T02:51:39.686Z,64.40
2022-10-31T02:54:06.015Z,63.17
2022-10-31T02:56:32.440Z,52.40
2022-10-31T02:59:02.824Z,61.97
2022-10-31T03:01:44.441Z,58.83
2022-10-31T03:04:10.891Z,53.57
2022-10-31T03:06:46.419Z,59.60
2022-10-31T03:09:31.489Z,57.43
2022-10-31T03:12:21.421Z,51.10
2022-10-31T03:14:57.546Z,58.70
2022-10-31T03:17:27.292Z,61.40
2022-10-31T03:19:55.490Z,57.27
2022-10-31T03:22:25.512Z,47.87
2022-10-31T03:24:53.021Z,62.47
2022-10-31T03:27:21.612Z,50.10
2022-10-31T03:29:49.706Z,59.60
2022-10-31T03:32:18.772Z,52.73
2022-10-31T03:34:46.252Z,60.80
2022-10-31T03:37:15.523Z,61.30
2022-10-31T03:39:43.725Z,64.07
2022-10-31T03:42:12.067Z,62.50
2022-10-31T03:44:39.137Z,64.27
2022-10-31T03:47:05.715Z,66.47
2022-10-31T03:49:32.870Z,56.50
2022-10-31T03:52:03.433Z,56.60
2022-10-31T03:54:37.290Z,61.57
2022-10-31T03:57:10.409Z,65.30
2022-10-31T03:59:38.833Z,58.70
2022-10-31T04:02:08.844Z,49.67
2022-10-31T04:04:35.724Z,62.60
2022-10-31T04:07:02.563Z,63.40
2022-10-31T04:09:30.765Z,61.37
2022-10-31T04:11:59.184Z,61.80
2022-10-31T04:14:26.433Z,67.07
2022-10-31T04:16:52.848Z,70.17
2022-10-31T04:19:19.173Z,61.63
2022-10-31T04:21:45.513Z,65.70
2022-10-31T04:24:12.140Z,64.93
2022-10-31T04:26:41.701Z,70.47
2022-10-31T04:29:08.234Z,68.70
2022-10-31T04:31:34.605Z,65.20
2022-10-31T04:34:00.921Z,59.37
2022-10-31T04:36:27.267Z,91.03
2022-10-31T04:38:53.652Z,103.53
2022-10-31T04:41:19.995Z,72.10
2022-10-31T04:43:46.329Z,63.57
2022-10-31T04:46:12.677Z,63.03
2022-10-31T04:48:39.013Z,71.43
2022-10-31T04:51:05.538Z,82.13
2022-10-31T04:53:32.146Z,65.90
2022-10-31T04:55:58.936Z,70.30
2022-10-31T04:58:25.408Z,67.97
2022-10-31T05:00:55.501Z,62.17
2022-10-31T05:03:22.020Z,63.70
2022-10-31T05:05:48.783Z,71.33
2022-10-31T05:08:15.336Z,89.10
2022-10-31T05:10:41.735Z,89.67
2022-10-31T05:13:08.234Z,73.00
2022-10-31T05:15:34.766Z,77.07
2022-10-31T05:18:02.067Z,83.50
2022-10-31T05:20:29.845Z,68.87
2022-10-31T05:22:56.821Z,71.20
2022-10-31T05:25:24.116Z,79.30
2022-10-31T05:27:51.788Z,76.13
2022-10-31T05:30:19.885Z,79.17
2022-10-31T05:32:47.315Z,80.03
2022-10-31T05:35:15.004Z,77.77
2022-10-31T05:37:41.362Z,67.30
2022-10-31T05:40:09.029Z,63.93
2022-10-31T05:42:36.015Z,68.80
2022-10-31T05:45:02.441Z,60.27
2022-10-31T05:47:28.810Z,64.47
2022-10-31T05:49:55.157Z,61.97
2022-10-31T05:52:21.629Z,55.20
2022-10-31T05:54:48.265Z,62.07
2022-10-31T05:57:14.624Z,57.03
2022-10-31T05:59:40.977Z,62.90
2022-10-31T06:02:07.319Z,59.53
2022-10-31T06:04:33.803Z,61.10
2022-10-31T06:07:00.398Z,62.30
2022-10-31T06:09:26.737Z,66.20
2022-10-31T06:11:53.070Z,62.27
2022-10-31T06:14:19.404Z,57.83
2022-10-31T06:16:45.728Z,66.03
2022-10-31T06:19:12.085Z,70.87
2022-10-31T06:21:39.072Z,61.73
2022-10-31T06:24:05.556Z,58.33
2022-10-31T06:26:31.888Z,62.80
2022-10-31T06:29:02.998Z,65.50
2022-10-31T06:31:30.469Z,57.00
2022-10-31T06:33:57.262Z,62.00
2022-10-31T06:36:23.632Z,62.03
2022-10-31T06:38:49.984Z,68.00
2022-10-31T06:41:16.321Z,63.97
2022-10-31T06:43:42.664Z,65.53
2022-10-31T06:46:08.978Z,57.17
2022-10-31T06:48:36.426Z,64.17
2022-10-31T06:51:03.155Z,61.43
2022-10-31T06:53:32.251Z,52.00
2022-10-31T06:55:58.592Z,62.47
2022-10-31T06:58:25.007Z,57.33
2022-10-31T07:00:51.637Z,54.43
2022-10-31T07:03:18.484Z,55.63
2022-10-31T07:05:44.911Z,53.30
2022-10-31T07:08:12.480Z,53.50
2022-10-31T07:10:40.833Z,54.70
2022-10-31T07:13:10.682Z,54.53
2022-10-31T07:15:38.377Z,54.03
2022-10-31T07:18:05.947Z,46.23
2022-10-31T07:20:32.623Z,50.17
2022-10-31T07:22:59.084Z,48.53
2022-10-31T07:25:25.552Z,47.70
2022-10-31T07:27:52.025Z,51.27
2022-10-31T07:30:19.308Z,45.43
2022-10-31T07:32:46.929Z,56.37
2022-10-31T07:35:15.034Z,49.50
2022-10-31T07:37:41.762Z,46.13
2022-10-31T07:40:08.965Z,52.03
2022-10-31T07:42:36.330Z,53.00
2022-10-31T07:45:02.731Z,42.80
2022-10-31T07:47:29.077Z,45.50
2022-10-31T07:49:55.414Z,44.67
2022-10-31T07:52:21.756Z,50.10
2022-10-31T07:54:48.100Z,61.43
2022-10-31T07:57:15.917Z,47.83
2022-10-31T07:59:42.389Z,49.23
2022-10-31T08:02:09.198Z,41.80
2022-10-31T08:04:35.512Z,38.87
2022-10-31T08:07:01.857Z,38.30
2022-10-31T08:09:28.191Z,39.10
2022-10-31T08:11:54.638Z,35.67
2022-10-31T08:14:21.029Z,33.47
2022-10-31T08:16:47.472Z,38.93
2022-10-31T08:19:13.888Z,36.93
2022-10-31T08:21:40.437Z,39.57
2022-10-31T08:24:06.858Z,37.50
2022-10-31T08:26:33.677Z,31.17
2022-10-31T08:29:00.035Z,30.47
2022-10-31T08:31:33.107Z,61.07
2022-10-31T08:34:00.229Z,47.20
2022-10-31T08:36:27.892Z,42.80
2022-10-31T08:38:59.118Z,42.23
2022-10-31T08:41:28.011Z,38.43
2022-10-31T08:43:54.378Z,42.67
2022-10-31T08:46:20.716Z,32.97
2022-10-31T08:48:50.314Z,35.30
2022-10-31T08:51:16.700Z,35.60
2022-10-31T08:53:43.509Z,39.40
2022-10-31T08:56:09.841Z,31.33
2022-10-31T08:58:40.022Z,35.93
2022-10-31T09:01:06.901Z,35.07
2022-10-31T09:03:33.418Z,37.03
2022-10-31T09:06:00.555Z,32.53
2022-10-31T09:08:27.395Z,26.77
2022-10-31T09:10:56.698Z,31.07
2022-10-31T09:13:27.333Z,36.77
2022-10-31T09:15:54.451Z,30.40
2022-10-31T09:18:22.361Z,35.57
2022-10-31T09:20:49.267Z,37.33
2022-10-31T09:23:17.215Z,33.00
2022-10-31T09:25:49.180Z,28.10
2022-10-31T09:28:17.565Z,29.40
2022-10-31T09:30:43.949Z,28.90
2022-10-31T09:33:11.552Z,27.00
2022-10-31T09:35:38.191Z,29.87
2022-10-31T09:38:09.629Z,35.90
2022-10-31T09:40:40.550Z,58.67
2022-10-31T09:43:06.904Z,47.67
2022-10-31T09:45:42.355Z,30.67
2022-10-31T09:48:11.737Z,26.63
2022-10-31T09:50:44.045Z,27.50
2022-10-31T09:53:18.454Z,27.03
2022-10-31T09:55:47.702Z,28.23
2022-10-31T09:58:25.798Z,30.73
2022-10-31T10:00:52.831Z,27.17
2022-10-31T10:03:27.325Z,24.53
2022-10-31T10:05:59.679Z,30.60
2022-10-31T10:08:28.849Z,22.93
2022-10-31T10:11:04.094Z,24.13
2022-10-31T10:13:30.481Z,24.57
2022-10-31T10:16:01.623Z,23.30
2022-10-31T10:18:34.082Z,25.00
2022-10-31T10:21:00.517Z,24.27
2022-10-31T10:23:29.842Z,20.93
2022-10-31T10:26:11.078Z,21.50
2022-10-31T10:28:39.908Z,25.57
2022-10-31T10:31:17.308Z,27.00
2022-10-31T10:33:46.407Z,22.70
2022-10-31T10:36:14.884Z,22.00
2022-10-31T10:38:55.456Z,26.53
2022-10-31T10:41:23.925Z,24.27
2022-10-31T10:43:51.116Z,25.13
2022-10-31T10:46:46.648Z,19.63
2022-10-31T10:49:18.261Z,29.93
2022-10-31T10:52:19.305Z,25.60
2022-10-31T10:55:04.231Z,23.57
2022-10-31T10:57:33.593Z,25.07
2022-10-31T11:00:01.139Z,22.07
2022-10-31T11:02:31.605Z,21.80
2022-10-31T11:04:58.842Z,27.70
2022-10-31T11:07:25.217Z,22.70
2022-10-31T11:09:51.546Z,22.07
2022-10-31T11:12:31.553Z,19.30
2022-10-31T11:15:05.010Z,20.50
2022-10-31T11:17:33.159Z,21.87
2022-10-31T11:20:05.660Z,16.40
2022-10-31T11:22:32.009Z,17.30
2022-10-31T11:24:58.385Z,24.67
2022-10-31T11:27:25.520Z,17.87
2022-10-31T11:29:54.597Z,19.37
2022-10-31T11:32:25.624Z,20.53
2022-10-31T11:34:54.020Z,20.90
2022-10-31T11:37:27.991Z,21.43
2022-10-31T11:39:59.162Z,19.80
2022-10-31T11:42:27.674Z,25.20
2022-10-31T11:44:54.744Z,29.23
2022-10-31T11:47:28.870Z,21.50
2022-10-31T11:49:56.122Z,21.27
2022-10-31T11:52:27.769Z,25.37
2022-10-31T11:54:56.951Z,26.13
2022-10-31T11:57:33.706Z,21.27
2022-10-31T12:00:01.198Z,28.83
2022-10-31T12:02:28.139Z,29.40
2022-10-31T12:04:59.176Z,31.40
2022-10-31T12:07:25.561Z,29.40
2022-10-31T12:09:51.962Z,31.33
2022-10-31T12:12:18.332Z,31.13
2022-10-31T12:14:50.535Z,36.20
2022-10-31T12:17:25.398Z,34.23
2022-10-31T12:20:08.862Z,32.57
2022-10-31T12:22:35.200Z,35.80
2022-10-31T12:25:20.282Z,36.93
2022-10-31T12:27:57.044Z,37.63
2022-10-31T12:30:44.645Z,39.17
2022-10-31T12:33:13.825Z,39.70
2022-10-31T12:38:32.601Z,43.90
2022-10-31T12:41:11.282Z,37.03
2022-10-31T12:43:44.736Z,35.30
2022-10-31T12:46:26.876Z,34.47
2022-10-31T12:48:57.094Z,37.77
2022-10-31T12:51:24.700Z,35.07
2022-10-31T12:53:51.024Z,35.37
2022-10-31T12:56:36.712Z,39.93
2022-10-31T12:59:18.153Z,35.63
2022-10-31T13:01:49.100Z,34.47
2022-10-31T13:04:18.776Z,33.23
2022-10-31T13:06:49.179Z,36.17
2022-10-31T13:09:18.710Z,36.00
2022-10-31T13:11:51.229Z,33.07
2022-10-31T13:14:17.565Z,35.50
2022-10-31T13:16:45.566Z,34.60
2022-10-31T13:19:32.537Z,37.57
2022-10-31T13:22:02.131Z,28.33
2022-10-31T13:24:33.720Z,27.90
2022-10-31T13:27:02.444Z,30.40
2022-10-31T13:29:34.336Z,26.00
2022-10-31T13:32:01.755Z,30.17
2022-10-31T13:34:36.502Z,26.37
2022-10-31T13:37:02.857Z,35.27
2022-10-31T13:39:47.805Z,29.07
2022-10-31T13:42:24.484Z,28.70
2022-10-31T13:44:50.899Z,28.20
2022-10-31T13:47:25.042Z,29.53
2022-10-31T13:49:51.942Z,27.83
2022-10-31T13:52:25.590Z,26.70
2022-10-31T13:54:58.133Z,28.37
2022-10-31T13:57:40.030Z,24.10
2022-10-31T14:00:22.644Z,25.60
2022-10-31T14:02:50.007Z,25.87
2022-10-31T14:05:30.834Z,26.13
2022-10-31T14:07:58.278Z,27.97
2022-10-31T14:10:28.143Z,24.70
2022-10-31T14:13:03.532Z,33.27
2022-10-31T14:15:29.968Z,31.77
2022-10-31T14:18:04.656Z,23.17
2022-10-31T14:20:31.292Z,25.70
2022-10-31T14:22:57.624Z,25.00
2022-10-31T14:25:30.082Z,26.37
2022-10-31T14:27:56.800Z,20.47
2022-10-31T14:30:25.384Z,24.20
2022-10-31T14:32:57.955Z,25.20
2022-10-31T14:35:28.304Z,20.10
2022-10-31T14:38:04.804Z,19.83
2022-10-31T14:40:40.874Z,19.40
2022-10-31T14:43:25.918Z,24.90
2022-10-31T14:46:03.199Z,27.03
2022-10-31T14:48:32.609Z,21.27
2022-10-31T14:50:59.997Z,22.80
2022-10-31T14:53:37.070Z,27.80
2022-10-31T14:56:06.867Z,23.60
2022-10-31T14:58:39.023Z,23.00
2022-10-31T15:01:05.907Z,27.80
2022-10-31T15:03:37.587Z,29.03
2022-10-31T15:06:12.022Z,35.83
2022-10-31T15:08:41.245Z,21.47
2022-10-31T15:11:12.082Z,22.60
2022-10-31T15:13:45.582Z,23.67
2022-10-31T15:16:12.569Z,24.20
2022-10-31T15:18:45.494Z,24.07
2022-10-31T15:21:12.583Z,21.37
2022-10-31T15:23:39.109Z,25.77
2022-10-31T15:26:06.233Z,25.93
2022-10-31T15:28:32.777Z,25.60
2022-10-31T15:31:00.882Z,22.93
2022-10-31T15:33:33.658Z,24.47
2022-10-31T15:36:04.195Z,26.93
2022-10-31T15:38:30.702Z,26.50
2022-10-31T15:41:02.668Z,28.90
2022-10-31T15:43:33.412Z,26.43
2022-10-31T15:46:00.356Z,24.53
2022-10-31T15:48:26.814Z,29.37
2022-10-31T15:50:57.300Z,30.40
2022-10-31T15:53:27.568Z,30.00
2022-10-31T15:56:01.612Z,32.40
2022-10-31T15:58:29.326Z,25.83
2022-10-31T16:01:01.983Z,32.07
2022-10-31T16:03:29.650Z,30.37
2022-10-31T16:05:57.898Z,29.53
2022-10-31T16:08:26.965Z,26.97
2022-10-31T16:10:53.937Z,27.07
2022-10-31T16:13:24.062Z,26.30
2022-10-31T16:16:03.618Z,30.80
2022-10-31T16:18:40.143Z,29.33
2022-10-31T16:21:07.192Z,33.33
2022-10-31T16:23:33.592Z,30.00
2022-10-31T16:26:00.019Z,30.67
2022-10-31T16:28:31.025Z,31.33
2022-10-31T16:31:00.549Z,28.80
2022-10-31T16:33:31.932Z,30.07
2022-10-31T16:36:09.587Z,34.63
2022-10-31T16:38:45.586Z,34.37
2022-10-31T16:41:11.941Z,29.33
2022-10-31T16:43:38.320Z,32.63
2022-10-31T16:46:04.759Z,28.10
2022-10-31T16:48:31.167Z,28.80
2022-10-31T16:50:57.503Z,26.60
2022-10-31T16:53:24.341Z,29.13
2022-10-31T16:55:58.127Z,27.93
2022-10-31T16:58:33.656Z,33.00
2022-10-31T17:01:00.813Z,28.63
2022-10-31T17:03:27.255Z,30.30
2022-10-31T17:05:56.184Z,33.47
2022-10-31T17:08:22.893Z,34.20
2022-10-31T17:10:51.342Z,30.93
2022-10-31T17:13:19.592Z,29.80
2022-10-31T17:15:47.319Z,31.33
2022-10-31T17:18:16.999Z,36.87
2022-10-31T17:20:43.590Z,34.20
2022-10-31T17:23:11.135Z,34.40
2022-10-31T17:25:37.569Z,35.73
2022-10-31T17:28:04.862Z,37.70
2022-10-31T17:30:31.681Z,34.33
2022-10-31T17:32:58.378Z,38.77
2022-10-31T17:35:25.189Z,38.83
2022-10-31T17:37:51.568Z,42.17
2022-10-31T17:40:21.845Z,39.63
2022-10-31T17:42:52.077Z,40.17
2022-10-31T17:45:18.940Z,47.20
2022-10-31T17:47:46.875Z,39.83
2022-10-31T17:50:13.214Z,51.67
2022-10-31T17:52:39.535Z,39.00
2022-10-31T17:55:05.928Z,41.53
2022-10-31T17:57:35.869Z,40.07
2022-10-31T18:00:03.381Z,40.27
2022-10-31T18:02:29.835Z,38.50
2022-10-31T18:04:56.259Z,40.47
2022-10-31T18:07:22.853Z,38.90
2022-10-31T18:09:49.635Z,38.40
2022-10-31T18:12:16.285Z,38.57
2022-10-31T18:14:47.386Z,34.60
2022-10-31T18:17:15.050Z,34.07
2022-10-31T18:19:41.361Z,34.27
2022-10-31T18:22:07.681Z,38.43
2022-10-31T18:24:34.004Z,36.00
2022-10-31T18:27:00.607Z,36.17
2022-10-31T18:29:26.940Z,33.87
2022-10-31T18:31:54.429Z,31.27
2022-10-31T18:34:20.989Z,33.67
2022-10-31T18:36:47.548Z,31.87
2022-10-31T18:39:14.576Z,34.47
2022-10-31T18:41:41.140Z,35.93
2022-10-31T18:44:08.004Z,34.00
2022-10-31T18:46:35.476Z,31.03
2022-10-31T18:49:02.368Z,36.40
2022-10-31T18:51:28.897Z,32.33
2022-10-31T18:53:59.821Z,28.17
2022-10-31T18:56:26.965Z,27.57
2022-10-31T18:58:53.559Z,30.70
2022-10-31T19:01:21.231Z,30.03
2022-10-31T19:03:52.536Z,27.57
2022-10-31T19:06:18.892Z,31.70
2022-10-31T19:08:45.229Z,30.63
2022-10-31T19:11:12.774Z,34.30
2022-10-31T19:13:39.688Z,29.33
2022-10-31T19:16:10.236Z,33.17
2022-10-31T19:18:37.228Z,34.07
2022-10-31T19:21:07.142Z,31.07
2022-10-31T19:23:33.525Z,31.40
2022-10-31T19:26:00.495Z,36.57
2022-10-31T19:28:26.820Z,29.07
2022-10-31T19:30:54.352Z,33.47
2022-10-31T19:33:20.761Z,34.07
2022-10-31T19:35:47.205Z,35.80
2022-10-31T19:38:13.935Z,32.57
2022-10-31T19:40:40.429Z,98.33
2022-10-31T19:43:07.025Z,34.00
2022-10-31T19:45:33.695Z,29.57
2022-10-31T19:48:00.424Z,31.53
2022-10-31T19:50:27.789Z,30.43
2022-10-31T19:52:54.231Z,32.50
2022-10-31T19:55:20.612Z,29.60
2022-10-31T19:58:01.330Z,32.53
2022-10-31T20:00:33.274Z,33.70
2022-10-31T20:03:00.409Z,35.77
2022-10-31T20:05:27.017Z,28.73
2022-10-31T20:07:53.371Z,33.80
2022-10-31T20:10:19.773Z,35.10
2022-10-31T20:12:46.089Z,38.03
2022-10-31T20:15:12.500Z,38.03
2022-10-31T20:17:38.855Z,32.40
2022-10-31T20:20:08.825Z,33.87
2022-10-31T20:22:36.192Z,36.70
2022-10-31T20:25:02.687Z,32.70
2022-10-31T20:27:29.119Z,39.67
2022-10-31T20:29:55.455Z,36.80
2022-10-31T20:32:22.110Z,34.80
2022-10-31T20:37:34.873Z,37.60
2022-10-31T20:40:01.215Z,38.07
2022-10-31T20:42:27.565Z,34.23
2022-10-31T20:44:53.891Z,39.07
2022-10-31T20:47:23.426Z,35.57
2022-10-31T20:49:51.332Z,35.63
2022-10-31T20:52:17.695Z,36.13
2022-10-31T20:54:44.090Z,30.83
2022-10-31T20:57:10.406Z,40.27
2022-10-31T20:59:36.763Z,30.97
2022-10-31T21:02:03.235Z,34.77
2022-10-31T21:04:29.711Z,39.90
2022-10-31T21:06:56.040Z,34.03
2022-10-31T21:09:22.366Z,42.03
2022-10-31T21:11:48.928Z,35.67
2022-10-31T21:14:15.384Z,37.97
2022-10-31T21:16:41.744Z,38.30
2022-10-31T21:19:08.110Z,36.70
2022-10-31T21:21:35.882Z,39.57
2022-10-31T21:24:06.870Z,38.23
2022-10-31T21:26:37.863Z,37.27
2022-10-31T21:29:05.301Z,38.03
2022-10-31T21:31:31.748Z,43.77
2022-10-31T21:33:58.402Z,45.13
2022-10-31T21:36:26.281Z,38.70
2022-10-31T21:38:53.492Z,42.00
2022-10-31T21:41:20.282Z,46.40
2022-10-31T21:43:47.524Z,41.03
2022-10-31T21:46:14.993Z,42.33
2022-10-31T21:48:43.468Z,48.00
2022-10-31T21:51:11.483Z,39.70
2022-10-31T21:53:56.430Z,52.27
2022-10-31T21:56:23.192Z,42.07
2022-10-31T21:58:49.944Z,46.63
2022-10-31T22:01:16.394Z,47.03
2022-10-31T22:03:42.916Z,55.43
2022-10-31T22:06:10.430Z,47.83
2022-10-31T22:08:36.993Z,55.27
2022-10-31T22:11:07.513Z,41.73
2022-10-31T22:13:34.370Z,45.17
2022-10-31T22:16:11.122Z,40.83
2022-10-31T22:18:37.993Z,45.03
2022-10-31T22:21:11.635Z,48.40
2022-10-31T22:23:38.324Z,46.97
2022-10-31T22:26:05.930Z,48.47
2022-10-31T22:28:32.833Z,52.33
2022-10-31T22:30:59.251Z,47.37
2022-10-31T22:33:25.753Z,51.90
2022-10-31T22:35:52.131Z,48.90
2022-10-31T22:38:18.490Z,46.80
2022-10-31T22:40:45.007Z,50.40
2022-10-31T22:43:11.365Z,55.90
2022-10-31T22:45:37.848Z,44.27
2022-10-31T22:48:05.513Z,48.63
2022-10-31T22:50:32.511Z,49.07
2022-10-31T22:52:58.860Z,50.07
2022-10-31T22:55:25.176Z,48.73
2022-10-31T22:57:51.595Z,46.70
2022-10-31T23:00:18.546Z,56.20
2022-10-31T23:02:44.930Z,41.43
2022-10-31T23:05:11.263Z,49.20
2022-10-31T23:07:39.662Z,50.23
2022-10-31T23:10:06.312Z,47.70
2022-10-31T23:12:51.265Z,44.57
2022-10-31T23:15:17.675Z,41.27
2022-10-31T23:17:44.012Z,42.47
2022-10-31T23:20:10.480Z,45.63
2022-10-31T23:22:36.802Z,44.50
2022-10-31T23:25:04.004Z,41.30
2022-10-31T23:27:30.356Z,44.43
2022-10-31T23:29:57.907Z,37.47
2022-10-31T23:32:25.809Z,40.27
2022-10-31T23:34:56.658Z,42.67
2022-10-31T23:37:24.416Z,39.00
2022-10-31T23:39:50.905Z,38.67
2022-10-31T23:42:17.522Z,40.67
2022-10-31T23:44:44.179Z,35.77
2022-10-31T23:47:10.680Z,37.23
2022-10-31T23:49:37.024Z,45.07
2022-10-31T23:52:03.721Z,37.23
2022-10-31T23:54:30.088Z,39.13
2022-10-31T23:56:58.066Z,33.33
2022-10-31T23:59:25.128Z,34.87
